ADDS METAR Data INFO
IDs: Format: Raw Decoded Include TAF

Data at: 1610 UTC 14 Aug 2018

KCAV 141555Z AUTO 18004KT 10SM CLR 25/19 A2997 RMK AO2 PWINO
KCAV 141535Z AUTO 21004KT 10SM CLR 25/19 A2997 RMK AO2 PWINO
KCAV 141515Z AUTO 16004KT 10SM CLR 24/20 A2996 RMK AO2 PWINO
KCAV 141455Z AUTO 16004KT 10SM CLR 24/19 A2996 RMK AO2 PWINO
KCAV 141435Z AUTO 17004KT 9SM CLR 23/19 A2996 RMK AO2 PWINO
KCAV 141415Z AUTO 00000KT 9SM CLR 23/19 A2996 RMK AO2 PWINO
KCAV 141355Z AUTO 16005KT 9SM CLR 23/18 A2996 RMK AO2 PWINO
KCAV 141335Z AUTO 16005KT 9SM CLR 23/18 A2995 RMK AO2 PWINO
KCAV 141315Z AUTO VRB04KT 8SM CLR 22/18 A2996 RMK AO2 PWINO
KCAV 141255Z AUTO 13005KT 8SM CLR 21/18 A2996 RMK AO2 PWINO
KCAV 141235Z AUTO 00000KT 8SM CLR 20/18 A2996 RMK AO2 PWINO
KCAV 141215Z AUTO 00000KT 7SM CLR 20/18 A2996 RMK AO2 PWINO
KCAV 141155Z AUTO 00000KT 4SM BR CLR 19/18 A2996 RMK AO2 PWINO
KCAV 141135Z AUTO 00000KT 8SM CLR 20/18 A2995 RMK AO2 PWINO
KCAV 141115Z AUTO 12004KT 9SM CLR 20/17 A2995 RMK AO2 PWINO
KCAV 141055Z AUTO 13004KT 10SM CLR 20/18 A2995 RMK AO2 PWINO
KCAV 141035Z AUTO 11005KT 10SM SCT060 SCT080 20/18 A2995 RMK AO2 PWINO
KCAV 141015Z AUTO 13004KT 10SM FEW055 OVC065 21/17 A2995 RMK AO2 PWINO
KCAV 140955Z AUTO 13005KT 10SM OVC065 21/18 A2995 RMK AO2 PWINO
KCAV 140935Z AUTO 13006KT 10SM BKN060 20/18 A2996 RMK AO2 PWINO
KCAV 140915Z AUTO 13005KT 10SM CLR 20/18 A2996 RMK AO2 PWINO
KCAV 140855Z AUTO 13005KT 10SM CLR 21/18 A2996 RMK AO2 PWINO
KCAV 140835Z AUTO 13006KT 10SM CLR 21/18 A2996 RMK AO2 PWINO
KCAV 140815Z AUTO 13006KT 10SM FEW065 21/18 A2997 RMK AO2 PWINO
KCAV 140755Z AUTO 13006KT 10SM FEW065 21/18 A2997 RMK AO2 PWINO
KCAV 140735Z AUTO 13007KT 10SM CLR 21/18 A2998 RMK AO2 PWINO
KCAV 140715Z AUTO 13008KT 10SM CLR 22/18 A2998 RMK AO2 PWINO
KCAV 140655Z AUTO 13008KT 10SM CLR 22/18 A2998 RMK AO2 PWINO
KCAV 140635Z AUTO 12007KT 10SM FEW055 22/19 A2999 RMK AO2 PWINO
KCAV 140615Z AUTO 13007KT 10SM CLR 22/19 A2999 RMK AO2 PWINO
KCAV 140555Z AUTO 13007KT 10SM CLR 22/19 A2999 RMK AO2 PWINO
KCAV 140535Z AUTO 13007KT 10SM CLR 23/19 A2999 RMK AO2 PWINO
KCAV 140515Z AUTO 13007KT 10SM CLR 23/19 A2999 RMK AO2 PWINO
KCAV 140455Z AUTO 13008KT 10SM CLR 23/19 A2999 RMK AO2 PWINO
KCAV 140435Z AUTO 13007KT 10SM FEW047 23/20 A3000 RMK AO2 PWINO
KCAV 140415Z AUTO 13006KT 10SM FEW049 23/20 A3000 RMK AO2 PWINO
KCAV 140355Z AUTO 13007KT 10SM FEW050 23/20 A3000 RMK AO2 PWINO
KCAV 140335Z AUTO 13006KT 10SM CLR 23/20 A3000 RMK AO2 PWINO
KCAV 140315Z AUTO 13007KT 10SM CLR 23/20 A3000 RMK AO2 PWINO
KCAV 140255Z AUTO 13006KT 10SM CLR 23/20 A3001 RMK AO2 PWINO
KCAV 140235Z AUTO 14005KT 10SM FEW055 24/20 A3000 RMK AO2 PWINO
KCAV 140215Z AUTO 14006KT 10SM FEW050 24/20 A3000 RMK AO2 PWINO
KCAV 140155Z AUTO 14006KT 10SM FEW050 25/20 A3000 RMK AO2 PWINO
KCAV 140135Z AUTO 14006KT 10SM CLR 25/21 A2999 RMK AO2 PWINO
KCAV 140115Z AUTO 13005KT 10SM CLR 25/21 A2999 RMK AO2 PWINO
KCAV 140055Z AUTO 14005KT 10SM CLR 26/21 A2999 RMK AO2 PWINO
KCAV 140035Z AUTO 13005KT 10SM CLR 27/21 A2999 RMK AO2 PWINO
KCAV 140015Z AUTO 13005KT 10SM CLR 28/21 A2999 RMK AO2 PWINO
KCAV 132355Z AUTO 14005KT 10SM CLR 28/21 A2998 RMK AO2 PWINO
KCAV 132335Z AUTO 14005KT 10SM CLR 29/21 A2999 RMK AO2 PWINO
KCAV 132315Z AUTO 15005KT 10SM CLR 29/21 A3000 RMK AO2 PWINO
KCAV 132255Z AUTO 16005KT 10SM CLR 30/21 A3001 RMK AO2 PWINO
KCAV 132235Z AUTO 18006KT 10SM CLR 30/20 A3001 RMK AO2 PWINO
KCAV 132215Z AUTO 17006KT 10SM CLR 30/20 A3001 RMK AO2 PWINO
KCAV 132155Z AUTO 17007KT 10SM CLR 30/19 A3001 RMK AO2 PWINO
KCAV 132135Z AUTO VRB06G12KT 130V190 10SM CLR 31/19 A3001 RMK AO2 PWINO
KCAV 132115Z AUTO 16005KT 10SM CLR 31/18 A3001 RMK AO2 PWINO
KCAV 132055Z AUTO 17006KT 10SM CLR 31/18 A3002 RMK AO2 PWINO
KCAV 132035Z AUTO 15007KT 130V190 10SM CLR 30/20 A3002 RMK AO2 PWINO
KCAV 132015Z AUTO 17008KT 10SM CLR 31/19 A3002 RMK AO2 PWINO
KCAV 131955Z AUTO 16009KT 10SM CLR 30/20 A3004 RMK AO2 PWINO
KCAV 131935Z AUTO 17010KT 10SM CLR 30/20 A3004 RMK AO2 PWINO
KCAV 131915Z AUTO 17009KT 10SM CLR 30/20 A3005 RMK AO2 PWINO
KCAV 131855Z AUTO 17008KT 10SM CLR 30/20 A3005 RMK AO2 PWINO
KCAV 131835Z AUTO 17009KT 130V190 10SM CLR 30/20 A3005 RMK AO2 PWINO
KCAV 131815Z AUTO 16008KT 10SM CLR 30/20 A3005 RMK AO2 PWINO
KCAV 131755Z AUTO 17010KT 10SM CLR 30/20 A3006 RMK AO2 PWINO
KCAV 131735Z AUTO 17009G14KT 10SM CLR 29/20 A3007 RMK AO2 PWINO
KCAV 131715Z AUTO 15008KT 10SM CLR 29/20 A3007 RMK AO2 PWINO
KCAV 131655Z AUTO 10SM CLR 29/19 A3007 RMK AO2 PWINO
KCAV 131635Z AUTO 17009G15KT 10SM CLR 28/19 A3008 RMK AO2 PWINO
KCAV 131615Z AUTO 17009KT 10SM CLR 28/19 A3008 RMK AO2 PWINO
KCAV 131555Z AUTO VRB05G12KT 10SM CLR 28/19 A3009 RMK AO2 PWINO
KCAV 131535Z AUTO 17009KT 10SM CLR 27/19 A3009 RMK AO2 PWINO
KCAV 131515Z AUTO 17007KT 10SM CLR 26/19 A3009 RMK AO2 PWINO
KCAV 131455Z AUTO VRB06KT 10SM CLR 26/20 A3009 RMK AO2 PWINO
KCAV 131435Z AUTO 17007KT 10SM CLR 25/20 A3009 RMK AO2 PWINO
KCAV 131415Z AUTO 18007KT 9SM CLR 24/20 A3010 RMK AO2 PWINO
KCAV 131355Z AUTO 9SM CLR 23/19 A3010 RMK AO2 PWINO
KCAV 131335Z AUTO 18006KT 6SM HZ CLR 22/19 A3010 RMK AO2 PWINO
KCAV 131315Z AUTO 17005KT CLR 21/19 A3010 RMK AO2 PWINO
KCAV 131255Z AUTO 18006KT 10SM CLR 20/18 A3010 RMK AO2 PWINO
KCAV 131235Z AUTO 17005KT 9SM CLR 20/18 A3010 RMK AO2 PWINO
KCAV 131215Z AUTO 17005KT 7SM CLR 19/18 A3010 RMK AO2 PWINO
KCAV 131155Z AUTO 16005KT 7SM CLR 19/17 A3010 RMK AO2 PWINO
KCAV 131135Z AUTO 18004KT 8SM CLR 19/17 A3010 RMK AO2 PWINO
KCAV 131115Z AUTO 17005KT 8SM CLR 19/17 A3009 RMK AO2 PWINO
KCAV 131055Z AUTO 17005KT 10SM FEW060 19/17 A3009 RMK AO2 PWINO
KCAV 131035Z AUTO 16005KT 10SM SCT060 18/17 A3009 RMK AO2 PWINO
KCAV 131015Z AUTO 00000KT 9SM FEW060 18/17 A3009 RMK AO2 PWINO
KCAV 130955Z AUTO 17004KT 8SM SCT060 19/17 A3010 RMK AO2 PWINO
KCAV 130935Z AUTO 15005KT 10SM SCT060 SCT070 19/18 A3009 RMK AO2 PWINO
KCAV 130915Z AUTO 14005KT 10SM BKN060 BKN070 19/18 A3009 RMK AO2 PWINO
KCAV 130855Z AUTO 15005KT 10SM SCT060 SCT065 20/18 A3009 RMK AO2 PWINO
KCAV 130835Z AUTO 15005KT 10SM FEW060 20/18 A3009 RMK AO2 PWINO
KCAV 130815Z AUTO 14005KT 10SM CLR 20/19 A3009 RMK AO2 PWINO
KCAV 130755Z AUTO 13006KT 10SM CLR 20/19 A3010 RMK AO2 PWINO
KCAV 130735Z AUTO 14006KT 10SM FEW060 21/19 A3010 RMK AO2 PWINO
KCAV 130715Z AUTO 14006KT 10SM CLR 21/19 A3010 RMK AO2 PWINO
KCAV 130655Z AUTO 13007KT 10SM FEW050 FEW055 21/19 A3010 RMK AO2 PWINO
KCAV 130635Z AUTO 13007KT 10SM SCT050 21/19 A3011 RMK AO2 PWINO
KCAV 130615Z AUTO 14007KT 10SM FEW044 BKN050 21/19 A3011 RMK AO2 PWINO
KCAV 130555Z AUTO 14007KT 10SM FEW050 BKN055 BKN065 22/19 A3011 RMK AO2 PWINO
KCAV 130535Z AUTO 15008KT 10SM FEW045 BKN055 BKN065 22/19 A3011 RMK AO2 PWINO
KCAV 130515Z AUTO 14007KT 10SM FEW031 FEW043 BKN055 22/19 A3011 RMK AO2 PWINO
KCAV 130455Z AUTO 14007KT 10SM BKN055 BKN065 22/20 A3011 RMK AO2 PWINO
KCAV 130435Z AUTO 14007KT 10SM BKN055 BKN065 22/20 A3011 RMK AO2 PWINO
KCAV 130415Z AUTO 14007KT 10SM BKN055 22/20 A3011 RMK AO2 PWINO